NCAR-RAP Real-Time Weather Data

Output produced by METARs form (08 May 2021  00:23 UTC)
found at http://weather.rap.ucar.edu/surface/
 
KMCE 072353Z AUTO 33014KT 10SM CLR 26/07 A2993 RMK AO2 SLP134 T02610067 10267 20200 56022
KMCE 072253Z AUTO 32011KT 10SM CLR 26/08 A2995 RMK AO2 SLP139 T02610078
KMCE 072153Z AUTO 31011G18KT 10SM CLR 26/08 A2997 RMK AO2 SLP149 T02560083
KMCE 072053Z AUTO 31009KT 10SM CLR 25/09 A2999 RMK AO2 SLP156 T02500089 58010
KMCE 071953Z AUTO 32008KT 290V360 10SM CLR 23/08 A3000 RMK AO2 SLP159 T02280083
KMCE 071853Z AUTO VRB06KT 10SM CLR 22/07 A3002 RMK AO2 SLP164 T02170072
KMCE 071753Z AUTO 31004KT 10SM CLR 20/07 A3003 RMK AO2 SLP167 T02000067 10200 20106 50004
KMCE 071653Z AUTO 32010KT 10SM CLR 19/06 A3003 RMK AO2 SLP167 T01890056
KMCE 071553Z AUTO 34010KT 10SM CLR 17/07 A3003 RMK AO2 SLP167 T01670067
KMCE 071453Z AUTO 32009KT 10SM CLR 14/07 A3001 RMK AO2 SLP163 T01440072 53012
KMCE 071353Z AUTO 28003KT 10SM CLR 11/08 A3000 RMK AO2 SLP156 T01110078
KMCE 071253Z AUTO 28003KT 10SM CLR 11/08 A2998 RMK AO2 SLP151 T01110078
KMCE 071153Z AUTO 27003KT 10SM CLR 11/08 A2998 RMK AO2 SLP151 T01110078 10178 20111 55003